createdAt,value
2019-03-06T00:01:55.344Z,3.00
2019-03-06T00:04:23.313Z,4.12
2019-03-06T00:06:51.621Z,2.30
2019-03-06T00:09:19.987Z,3.20
2019-03-06T00:11:48.149Z,3.20
2019-03-06T00:14:16.377Z,1.95
2019-03-06T00:16:44.471Z,1.77
2019-03-06T00:19:12.755Z,2.75
2019-03-06T00:21:40.749Z,1.87
2019-03-06T00:24:08.763Z,1.98
2019-03-06T00:26:36.686Z,1.70
2019-03-06T00:29:04.724Z,1.82
2019-03-06T00:31:33.062Z,1.45
2019-03-06T00:34:01.338Z,2.10
2019-03-06T00:36:31.335Z,1.30
2019-03-06T00:39:01.337Z,1.85
2019-03-06T00:41:41.399Z,1.60
2019-03-06T00:44:09.339Z,1.42
2019-03-06T00:46:37.422Z,1.32
2019-03-06T00:49:05.803Z,1.50
2019-03-06T00:51:33.917Z,0.90
2019-03-06T00:54:01.968Z,1.05
2019-03-06T00:56:29.822Z,1.45
2019-03-06T00:58:57.761Z,1.00
2019-03-06T01:01:26.140Z,1.20
2019-03-06T01:03:54.369Z,1.10
2019-03-06T01:06:22.402Z,1.30
2019-03-06T01:08:50.564Z,0.70
2019-03-06T01:11:19.571Z,1.00
2019-03-06T01:13:47.776Z,0.70
2019-03-06T01:16:16.096Z,1.00
2019-03-06T01:18:44.423Z,1.25
2019-03-06T01:21:12.464Z,1.07
2019-03-06T01:23:40.469Z,1.50
2019-03-06T01:26:08.720Z,0.70
2019-03-06T01:28:37.126Z,1.10
2019-03-06T01:31:05.119Z,0.80
2019-03-06T01:33:45.099Z,0.90
2019-03-06T01:36:50.845Z,0.98
2019-03-06T01:39:48.168Z,1.10
2019-03-06T01:42:35.681Z,1.77
2019-03-06T01:45:07.508Z,1.67
2019-03-06T01:47:35.531Z,1.72
2019-03-06T01:50:06.255Z,1.80
2019-03-06T01:52:34.232Z,1.20
2019-03-06T01:55:02.861Z,1.10
2019-03-06T01:57:31.179Z,1.20
2019-03-06T01:59:59.547Z,1.12
2019-03-06T02:02:27.612Z,1.10
2019-03-06T02:04:55.907Z,1.32
2019-03-06T02:07:24.689Z,2.08
2019-03-06T02:09:52.831Z,1.62
2019-03-06T02:12:20.767Z,1.30
2019-03-06T02:14:49.464Z,1.30
2019-03-06T02:17:17.379Z,1.40
2019-03-06T02:19:45.525Z,1.10
2019-03-06T02:22:13.765Z,1.10
2019-03-06T02:24:41.704Z,1.00
2019-03-06T02:27:09.810Z,1.30
2019-03-06T02:29:37.736Z,1.25
2019-03-06T02:32:05.673Z,1.37
2019-03-06T02:34:33.762Z,1.20
2019-03-06T02:37:02.161Z,0.88
2019-03-06T02:39:30.508Z,1.00
2019-03-06T02:41:58.461Z,0.80
2019-03-06T02:44:26.572Z,1.20
2019-03-06T02:46:54.470Z,1.42
2019-03-06T02:49:22.531Z,1.15
2019-03-06T02:51:50.519Z,0.93
2019-03-06T02:54:18.627Z,1.20
2019-03-06T02:56:46.533Z,1.10
2019-03-06T02:59:34.075Z,1.20
2019-03-06T03:02:16.604Z,0.98
2019-03-06T03:04:53.999Z,0.90
2019-03-06T03:07:22.052Z,1.20
2019-03-06T03:09:50.196Z,1.10
2019-03-06T03:12:18.081Z,1.02
2019-03-06T03:14:46.618Z,1.10
2019-03-06T03:17:14.897Z,1.12
2019-03-06T03:19:43.080Z,1.72
2019-03-06T03:22:11.383Z,3.60
2019-03-06T03:24:39.328Z,4.40
2019-03-06T03:27:07.152Z,3.42
2019-03-06T03:29:35.125Z,3.80
2019-03-06T03:32:03.161Z,4.45
2019-03-06T03:34:31.443Z,3.60
2019-03-06T03:36:59.778Z,4.42
2019-03-06T03:39:28.052Z,3.45
2019-03-06T03:41:56.036Z,4.25
2019-03-06T03:44:24.159Z,4.65
2019-03-06T03:46:52.069Z,4.65
2019-03-06T03:49:20.389Z,5.30
2019-03-06T03:51:48.755Z,4.53
2019-03-06T03:54:16.896Z,3.00
2019-03-06T03:56:44.920Z,4.65
2019-03-06T03:59:12.978Z,3.12
2019-03-06T04:01:41.130Z,4.20
2019-03-06T04:04:09.341Z,4.10
2019-03-06T04:06:37.417Z,3.22
2019-03-06T04:09:06.831Z,4.12
2019-03-06T04:11:34.926Z,3.72
2019-03-06T04:14:03.090Z,4.67
2019-03-06T04:16:31.293Z,3.25
2019-03-06T04:18:59.221Z,4.08
2019-03-06T04:21:27.695Z,3.30
2019-03-06T04:23:55.667Z,3.50
2019-03-06T04:26:23.704Z,3.20
2019-03-06T04:28:51.633Z,2.90
2019-03-06T04:31:20.163Z,3.30
2019-03-06T04:33:48.059Z,2.42
2019-03-06T04:36:15.929Z,2.95
2019-03-06T04:38:44.214Z,3.20
2019-03-06T04:41:12.658Z,2.47
2019-03-06T04:43:40.893Z,3.45
2019-03-06T04:46:08.927Z,3.85
2019-03-06T04:48:37.084Z,4.25
2019-03-06T04:51:05.655Z,3.45
2019-03-06T04:53:33.662Z,2.95
2019-03-06T04:56:01.537Z,3.33
2019-03-06T04:58:29.592Z,3.12
2019-03-06T05:00:57.580Z,2.10
2019-03-06T05:03:25.528Z,2.50
2019-03-06T05:05:53.487Z,2.67
2019-03-06T05:08:21.735Z,2.52
2019-03-06T05:10:49.646Z,3.65
2019-03-06T05:13:17.833Z,3.05
2019-03-06T05:15:46.064Z,1.90
2019-03-06T05:18:22.716Z,2.80
2019-03-06T05:20:50.912Z,2.65
2019-03-06T05:23:19.102Z,2.80
2019-03-06T05:25:47.057Z,2.55
2019-03-06T05:28:15.131Z,3.58
2019-03-06T05:30:45.208Z,2.40
2019-03-06T05:33:13.913Z,1.92
2019-03-06T05:36:29.870Z,1.35
2019-03-06T05:39:07.107Z,2.10
2019-03-06T05:41:35.052Z,1.57
2019-03-06T05:44:03.612Z,1.80
2019-03-06T05:46:31.664Z,1.47
2019-03-06T05:49:00.114Z,1.92
2019-03-06T05:51:28.368Z,1.85
2019-03-06T05:53:56.387Z,1.07
2019-03-06T05:56:24.672Z,2.05
2019-03-06T05:58:52.692Z,2.30
2019-03-06T06:01:21.259Z,2.47
2019-03-06T06:03:49.928Z,2.35
2019-03-06T06:06:18.099Z,1.75
2019-03-06T06:08:46.154Z,1.37
2019-03-06T06:11:14.303Z,1.75
2019-03-06T06:13:42.756Z,1.62
2019-03-06T06:16:10.956Z,1.30
2019-03-06T06:18:39.050Z,1.57
2019-03-06T06:21:29.627Z,1.72
2019-03-06T06:24:00.801Z,1.40
2019-03-06T06:26:29.279Z,1.30
2019-03-06T06:28:57.244Z,1.32
2019-03-06T06:31:25.682Z,1.92
2019-03-06T06:33:53.687Z,1.10
2019-03-06T06:36:22.363Z,0.80
2019-03-06T06:38:51.039Z,1.42
2019-03-06T06:41:19.240Z,1.50
2019-03-06T06:43:47.777Z,1.47
2019-03-06T06:46:15.884Z,1.20
2019-03-06T06:48:44.162Z,1.50
2019-03-06T06:52:00.500Z,1.00
2019-03-06T06:55:47.755Z,0.80
2019-03-06T06:59:01.041Z,1.17
2019-03-06T07:02:30.160Z,1.20
2019-03-06T07:05:28.068Z,0.78
2019-03-06T07:08:19.288Z,1.10
2019-03-06T07:11:13.494Z,0.90
2019-03-06T07:14:07.166Z,1.20
2019-03-06T07:17:00.816Z,1.35
2019-03-06T07:19:47.204Z,1.10
2019-03-06T07:22:35.316Z,0.90
2019-03-06T07:25:21.947Z,1.30
2019-03-06T07:28:22.673Z,1.40
2019-03-06T07:31:09.209Z,1.30
2019-03-06T07:33:55.483Z,1.50
2019-03-06T07:36:41.847Z,1.15
2019-03-06T07:39:32.725Z,1.02
2019-03-06T07:42:20.636Z,1.85
2019-03-06T07:46:05.800Z,0.90
2019-03-06T07:49:13.223Z,1.00
2019-03-06T07:51:59.366Z,1.20
2019-03-06T07:55:05.242Z,1.40
2019-03-06T07:57:45.113Z,0.80
2019-03-06T08:00:17.313Z,1.60
2019-03-06T08:03:22.262Z,1.45
2019-03-06T08:05:50.281Z,1.00
2019-03-06T08:08:18.524Z,1.10
2019-03-06T08:10:47.039Z,0.80
2019-03-06T08:13:33.040Z,1.00
2019-03-06T08:16:13.288Z,1.32
2019-03-06T08:18:57.311Z,1.60
2019-03-06T08:21:52.320Z,1.65
2019-03-06T08:24:38.688Z,1.75
2019-03-06T08:27:06.891Z,0.90
2019-03-06T08:29:35.302Z,0.90
2019-03-06T08:32:41.672Z,1.10
2019-03-06T08:35:10.161Z,1.42
2019-03-06T08:37:38.174Z,1.47
2019-03-06T08:40:07.535Z,1.30
2019-03-06T08:42:35.541Z,0.95
2019-03-06T08:45:05.139Z,1.10
2019-03-06T08:47:42.122Z,0.70
2019-03-06T08:50:20.394Z,0.80
2019-03-06T08:53:09.445Z,1.05
2019-03-06T08:55:55.878Z,1.52
2019-03-06T08:58:52.440Z,1.02
2019-03-06T09:02:00.060Z,1.32
2019-03-06T09:04:41.244Z,0.80
2019-03-06T09:07:27.779Z,0.70
2019-03-06T09:10:05.941Z,0.80
2019-03-06T09:12:53.836Z,0.90
2019-03-06T09:15:44.044Z,1.00
2019-03-06T09:18:40.633Z,1.10
2019-03-06T09:21:43.144Z,1.00
2019-03-06T09:24:21.957Z,0.82
2019-03-06T09:27:08.456Z,1.17
2019-03-06T09:30:05.023Z,1.00
2019-03-06T09:32:51.320Z,1.30
2019-03-06T09:35:35.448Z,1.32
2019-03-06T09:38:26.410Z,1.37
2019-03-06T09:41:03.012Z,1.32
2019-03-06T09:44:03.182Z,1.15
2019-03-06T09:46:41.995Z,1.05
2019-03-06T09:49:19.050Z,1.00
2019-03-06T09:52:12.515Z,1.15
2019-03-06T09:54:48.640Z,1.32
2019-03-06T09:57:39.209Z,1.20
2019-03-06T10:00:33.595Z,1.98
2019-03-06T10:03:30.321Z,1.37
2019-03-06T10:06:24.146Z,1.45
2019-03-06T10:09:04.156Z,4.67
2019-03-06T10:11:40.913Z,1.67
2019-03-06T10:14:18.916Z,1.10
2019-03-06T10:16:56.371Z,1.00
2019-03-06T10:19:31.066Z,1.00
2019-03-06T10:21:59.330Z,1.00
2019-03-06T10:24:27.600Z,1.27
2019-03-06T10:26:55.461Z,1.70
2019-03-06T10:29:23.989Z,1.12
2019-03-06T10:31:52.013Z,1.55
2019-03-06T10:34:20.831Z,1.27
2019-03-06T10:36:48.935Z,1.30
2019-03-06T10:39:19.230Z,1.37
2019-03-06T10:41:47.432Z,1.10
2019-03-06T10:44:15.644Z,1.50
2019-03-06T10:46:45.071Z,1.10
2019-03-06T10:49:13.277Z,1.47
2019-03-06T10:51:41.567Z,1.50
2019-03-06T10:54:09.887Z,1.35
2019-03-06T10:56:38.481Z,1.67
2019-03-06T10:59:07.733Z,1.00
2019-03-06T11:01:36.030Z,0.80
2019-03-06T11:04:24.188Z,1.15
2019-03-06T11:06:52.773Z,1.57
2019-03-06T11:09:21.081Z,1.12
2019-03-06T11:11:49.957Z,1.10
2019-03-06T11:14:18.265Z,1.00
2019-03-06T11:16:46.842Z,1.10
2019-03-06T11:19:15.603Z,1.30
2019-03-06T11:21:43.605Z,1.05
2019-03-06T11:24:12.032Z,0.90
2019-03-06T11:26:40.805Z,1.40
2019-03-06T11:29:10.502Z,1.10
2019-03-06T11:31:39.251Z,1.62
2019-03-06T11:34:08.790Z,1.12
2019-03-06T11:36:36.889Z,1.55
2019-03-06T11:39:09.901Z,1.15
2019-03-06T11:41:38.367Z,1.27
2019-03-06T11:44:06.940Z,1.20
2019-03-06T11:46:35.158Z,1.25
2019-03-06T11:49:06.435Z,1.57
2019-03-06T11:51:33.538Z,1.35
2019-03-06T11:54:01.813Z,1.05
2019-03-06T11:56:31.236Z,1.10
2019-03-06T11:58:59.391Z,1.10
2019-03-06T12:01:29.799Z,0.90
2019-03-06T12:03:58.533Z,1.40
2019-03-06T12:06:26.773Z,0.90
2019-03-06T12:08:54.842Z,0.90
2019-03-06T12:11:22.793Z,0.90
2019-03-06T12:13:51.383Z,1.10
2019-03-06T12:16:19.773Z,0.90
2019-03-06T12:18:48.333Z,0.90
2019-03-06T12:21:16.541Z,0.80
2019-03-06T12:23:44.972Z,0.90
2019-03-06T12:26:13.916Z,0.82
2019-03-06T12:28:42.521Z,1.12
2019-03-06T12:31:10.675Z,0.88
2019-03-06T12:33:38.923Z,0.75
2019-03-06T12:36:07.014Z,0.90
2019-03-06T12:38:35.088Z,0.90
2019-03-06T12:41:04.220Z,0.80
2019-03-06T12:43:33.741Z,0.80
2019-03-06T12:46:23.722Z,0.68
2019-03-06T12:49:14.181Z,0.78
2019-03-06T12:51:42.451Z,1.10
2019-03-06T12:54:10.691Z,1.00
2019-03-06T12:56:38.788Z,1.10
2019-03-06T12:59:07.480Z,0.80
2019-03-06T13:01:35.616Z,0.90
2019-03-06T13:04:04.797Z,1.02
2019-03-06T13:06:33.155Z,0.70
2019-03-06T13:09:07.650Z,0.80
2019-03-06T13:11:35.713Z,0.80
2019-03-06T13:14:04.193Z,0.80
2019-03-06T13:16:32.941Z,0.80
2019-03-06T13:19:01.457Z,0.78
2019-03-06T13:21:30.813Z,1.40
2019-03-06T13:23:59.594Z,0.82
2019-03-06T13:26:28.067Z,1.40
2019-03-06T13:28:57.736Z,0.80
2019-03-06T13:31:25.915Z,0.70
2019-03-06T13:34:11.763Z,0.60
2019-03-06T13:36:40.387Z,0.70
2019-03-06T13:39:09.462Z,0.68
2019-03-06T13:41:37.760Z,0.78
2019-03-06T13:44:07.441Z,0.70
2019-03-06T13:46:36.414Z,0.60
2019-03-06T13:49:04.680Z,0.70
2019-03-06T13:51:32.800Z,0.80
2019-03-06T13:54:00.830Z,0.60
2019-03-06T13:56:29.309Z,0.70
2019-03-06T13:58:57.725Z,0.60
2019-03-06T14:01:25.963Z,0.80
2019-03-06T14:03:54.509Z,0.62
2019-03-06T14:06:22.628Z,0.60
2019-03-06T14:08:51.439Z,0.70
2019-03-06T14:11:19.724Z,0.50
2019-03-06T14:13:48.226Z,0.60
2019-03-06T14:16:16.555Z,0.70
2019-03-06T14:18:44.764Z,0.70
2019-03-06T14:21:13.411Z,0.70
2019-03-06T14:23:42.056Z,0.60
2019-03-06T14:26:10.900Z,0.70
2019-03-06T14:28:39.554Z,0.60
2019-03-06T14:31:08.270Z,0.70
2019-03-06T14:33:39.695Z,0.70
2019-03-06T14:36:07.869Z,0.65
2019-03-06T14:38:35.859Z,0.70
2019-03-06T14:41:03.983Z,0.80
2019-03-06T14:43:32.515Z,0.70
2019-03-06T14:46:00.613Z,0.60
2019-03-06T14:48:28.808Z,0.60
2019-03-06T14:50:57.026Z,0.73
2019-03-06T14:53:25.080Z,0.85
2019-03-06T14:55:53.193Z,0.70
2019-03-06T14:58:23.084Z,0.88
2019-03-06T15:00:51.978Z,0.70
2019-03-06T15:03:20.439Z,0.80
2019-03-06T15:05:48.966Z,0.60
2019-03-06T15:08:17.132Z,1.20
2019-03-06T15:10:45.185Z,1.47
2019-03-06T15:13:13.147Z,0.80
2019-03-06T15:15:41.455Z,0.67
2019-03-06T15:18:10.987Z,0.60
2019-03-06T15:20:39.323Z,0.90
2019-03-06T15:23:07.470Z,0.80
2019-03-06T15:25:35.705Z,0.80
2019-03-06T15:28:03.988Z,0.70
2019-03-06T15:30:32.090Z,0.60
2019-03-06T15:33:00.332Z,0.70
2019-03-06T15:35:28.484Z,0.80
2019-03-06T15:37:56.700Z,0.70
2019-03-06T15:40:28.497Z,0.67
2019-03-06T15:42:56.752Z,0.90
2019-03-06T15:45:28.114Z,0.97
2019-03-06T15:47:56.334Z,0.83
2019-03-06T15:50:25.121Z,0.70
2019-03-06T15:52:53.351Z,0.80
2019-03-06T15:55:24.103Z,0.70
2019-03-06T15:57:52.224Z,1.03
2019-03-06T16:00:46.402Z,0.80
2019-03-06T16:03:11.944Z,1.10
2019-03-06T16:05:40.749Z,0.80
2019-03-06T16:08:09.407Z,0.98
2019-03-06T16:10:38.371Z,1.27
2019-03-06T16:13:07.232Z,1.15
2019-03-06T16:15:35.287Z,1.10
2019-03-06T16:18:04.121Z,1.02
2019-03-06T16:20:32.528Z,1.67
2019-03-06T16:23:00.798Z,1.42
2019-03-06T16:25:36.442Z,1.12
2019-03-06T16:28:00.456Z,1.10
2019-03-06T16:30:30.017Z,1.20
2019-03-06T16:32:59.418Z,1.62
2019-03-06T16:35:28.360Z,1.00
2019-03-06T16:37:57.075Z,1.35
2019-03-06T16:40:25.908Z,1.10
2019-03-06T16:42:54.721Z,1.32
2019-03-06T16:45:24.817Z,1.67
2019-03-06T16:47:53.825Z,1.40
2019-03-06T16:50:23.223Z,1.40
2019-03-06T16:52:51.706Z,2.15
2019-03-06T16:55:21.278Z,2.40
2019-03-06T16:57:49.757Z,1.95
2019-03-06T17:00:21.358Z,1.98
2019-03-06T17:02:49.750Z,3.17
2019-03-06T17:05:18.871Z,2.67
2019-03-06T17:07:47.648Z,1.60
2019-03-06T17:10:17.806Z,1.57
2019-03-06T17:12:46.283Z,1.37
2019-03-06T17:15:16.681Z,1.50
2019-03-06T17:17:45.918Z,1.10
2019-03-06T17:20:17.832Z,1.45
2019-03-06T17:22:49.536Z,1.22
2019-03-06T17:25:18.067Z,1.10
2019-03-06T17:27:46.308Z,1.00
2019-03-06T17:30:18.652Z,1.47
2019-03-06T17:32:58.873Z,1.30
2019-03-06T17:35:28.336Z,1.45
2019-03-06T17:37:56.764Z,1.42
2019-03-06T17:40:25.490Z,1.25
2019-03-06T17:42:53.935Z,1.20
2019-03-06T17:45:23.965Z,1.02
2019-03-06T17:47:52.532Z,1.00
2019-03-06T17:50:22.686Z,1.10
2019-03-06T17:52:51.121Z,1.12
2019-03-06T17:55:20.201Z,1.30
2019-03-06T17:57:48.337Z,1.45
2019-03-06T18:00:18.774Z,1.10
2019-03-06T18:02:47.551Z,0.98
2019-03-06T18:05:15.802Z,1.17
2019-03-06T18:07:43.878Z,2.33
2019-03-06T18:10:16.105Z,2.10
2019-03-06T18:12:44.118Z,3.40
2019-03-06T18:15:13.701Z,1.80
2019-03-06T18:17:42.064Z,1.32
2019-03-06T18:20:13.031Z,1.22
2019-03-06T18:22:42.072Z,1.40
2019-03-06T18:25:14.814Z,1.12
2019-03-06T18:27:42.892Z,1.20
2019-03-06T18:30:13.997Z,1.37
2019-03-06T18:32:42.588Z,1.35
2019-03-06T18:35:12.591Z,1.20
2019-03-06T18:37:40.961Z,1.25
2019-03-06T18:40:13.312Z,1.90
2019-03-06T18:42:42.695Z,2.12
2019-03-06T18:45:15.375Z,1.52
2019-03-06T18:47:44.007Z,1.00
2019-03-06T18:50:16.142Z,0.70
2019-03-06T18:52:44.572Z,0.70
2019-03-06T18:55:14.304Z,0.80
2019-03-06T18:57:42.667Z,0.80
2019-03-06T19:00:16.767Z,1.00
2019-03-06T19:02:44.987Z,0.93
2019-03-06T19:05:14.051Z,2.20
2019-03-06T19:07:42.227Z,1.40
2019-03-06T19:10:12.722Z,1.10
2019-03-06T19:12:41.314Z,0.98
2019-03-06T19:15:12.762Z,0.93
2019-03-06T19:17:40.914Z,0.80
2019-03-06T19:20:09.557Z,1.45
2019-03-06T19:22:38.199Z,0.80
2019-03-06T19:25:08.979Z,1.00
2019-03-06T19:27:37.100Z,1.70
2019-03-06T19:30:15.960Z,1.00
2019-03-06T19:32:44.144Z,1.00
2019-03-06T19:35:12.245Z,1.00
2019-03-06T19:37:40.803Z,1.05
2019-03-06T19:40:09.304Z,1.47
2019-03-06T19:42:37.404Z,0.80
2019-03-06T19:45:06.779Z,1.00
2019-03-06T19:47:35.105Z,1.00
2019-03-06T19:50:03.482Z,1.30
2019-03-06T19:52:31.533Z,1.30
2019-03-06T19:54:59.912Z,1.02
2019-03-06T19:57:41.272Z,0.98
2019-03-06T20:00:09.849Z,1.20
2019-03-06T20:02:38.167Z,1.00
2019-03-06T20:05:07.933Z,1.12
2019-03-06T20:07:36.229Z,1.00
2019-03-06T20:10:04.801Z,1.37
2019-03-06T20:12:33.179Z,1.10
2019-03-06T20:15:01.424Z,1.12
2019-03-06T20:17:30.021Z,1.10
2019-03-06T20:19:58.343Z,1.10
2019-03-06T20:22:26.535Z,1.05
2019-03-06T20:24:55.034Z,1.55
2019-03-06T20:27:23.556Z,1.60
2019-03-06T20:29:52.157Z,1.00
2019-03-06T20:32:20.647Z,1.47
2019-03-06T20:34:48.812Z,1.10
2019-03-06T20:37:17.080Z,1.57
2019-03-06T20:39:45.447Z,1.50
2019-03-06T20:42:13.702Z,1.20
2019-03-06T20:44:42.816Z,1.00
2019-03-06T20:47:11.202Z,0.90
2019-03-06T20:49:40.202Z,1.45
2019-03-06T20:52:08.914Z,0.90
2019-03-06T20:54:38.164Z,1.02
2019-03-06T20:57:06.624Z,0.90
2019-03-06T20:59:35.656Z,1.10
2019-03-06T21:02:04.478Z,1.45
2019-03-06T21:04:33.385Z,0.90
2019-03-06T21:07:02.652Z,4.08
2019-03-06T21:09:31.383Z,1.77
2019-03-06T21:11:59.699Z,1.92
2019-03-06T21:14:27.997Z,2.80
2019-03-06T21:16:58.158Z,1.75
2019-03-06T21:19:26.451Z,2.87
2019-03-06T21:21:54.921Z,1.40
2019-03-06T21:24:23.409Z,1.40
2019-03-06T21:26:51.397Z,1.10
2019-03-06T21:29:22.827Z,1.37
2019-03-06T21:31:51.203Z,1.67
2019-03-06T21:34:19.816Z,1.65
2019-03-06T21:36:47.969Z,1.10
2019-03-06T21:39:24.576Z,0.90
2019-03-06T21:41:52.624Z,1.00
2019-03-06T21:44:21.024Z,1.55
2019-03-06T21:46:48.981Z,0.98
2019-03-06T21:49:17.087Z,1.15
2019-03-06T21:51:45.399Z,1.00
2019-03-06T21:54:13.523Z,1.00
2019-03-06T21:56:41.473Z,1.30
2019-03-06T21:59:09.535Z,1.12
2019-03-06T22:01:37.774Z,1.25
2019-03-06T22:04:05.947Z,1.47
2019-03-06T22:06:33.994Z,1.00
2019-03-06T22:09:02.119Z,1.00
2019-03-06T22:11:30.371Z,1.77
2019-03-06T22:13:58.350Z,1.50
2019-03-06T22:16:26.606Z,0.95
2019-03-06T22:18:54.655Z,1.15
2019-03-06T22:21:23.166Z,1.15
2019-03-06T22:23:51.497Z,0.90
2019-03-06T22:26:19.381Z,1.00
2019-03-06T22:28:47.572Z,1.00
2019-03-06T22:31:15.604Z,0.82
2019-03-06T22:33:43.674Z,1.25
2019-03-06T22:36:11.666Z,1.50
2019-03-06T22:38:39.651Z,0.90
2019-03-06T22:41:07.738Z,1.25
2019-03-06T22:43:36.394Z,1.10
2019-03-06T22:46:04.463Z,1.05
2019-03-06T22:48:32.648Z,0.88
2019-03-06T22:51:01.027Z,1.30
2019-03-06T22:53:29.269Z,1.07
2019-03-06T22:55:57.256Z,1.00
2019-03-06T22:58:25.438Z,1.45
2019-03-06T23:01:07.485Z,1.47
2019-03-06T23:03:35.648Z,1.72
2019-03-06T23:06:04.552Z,1.50
2019-03-06T23:08:32.906Z,1.10
2019-03-06T23:11:01.579Z,1.60
2019-03-06T23:13:29.459Z,1.10
2019-03-06T23:15:57.452Z,1.20
2019-03-06T23:18:25.713Z,1.37
2019-03-06T23:20:53.648Z,1.75
2019-03-06T23:23:22.092Z,1.40
2019-03-06T23:25:50.083Z,1.60
2019-03-06T23:28:18.359Z,1.37
2019-03-06T23:30:47.362Z,1.27
2019-03-06T23:33:15.391Z,1.32
2019-03-06T23:35:44.657Z,1.40
2019-03-06T23:38:12.580Z,1.30
2019-03-06T23:40:40.479Z,1.35
2019-03-06T23:43:08.643Z,1.12
2019-03-06T23:45:36.743Z,1.20
2019-03-06T23:48:05.039Z,1.30
2019-03-06T23:50:32.982Z,1.10
2019-03-06T23:53:03.911Z,1.20
2019-03-06T23:55:31.826Z,1.10
2019-03-06T23:57:59.947Z,1.40
